createdAt,value
2024-03-10T00:00:00.000Z,4.35
2024-03-10T00:15:00.000Z,4.38
2024-03-10T00:30:00.000Z,4.55
2024-03-10T00:45:00.000Z,4.13
2024-03-10T01:00:00.000Z,4.05
2024-03-10T01:15:00.000Z,4.04
2024-03-10T01:30:00.000Z,4.09
2024-03-10T01:45:00.000Z,4.19
2024-03-10T02:00:00.000Z,5.84
2024-03-10T02:15:00.000Z,7.05
2024-03-10T02:30:00.000Z,7.52
2024-03-10T02:45:00.000Z,9.95
2024-03-10T03:00:00.000Z,8.53
2024-03-10T03:15:00.000Z,8.94
2024-03-10T03:30:00.000Z,9.98
2024-03-10T03:45:00.000Z,9.56
2024-03-10T04:00:00.000Z,5.09
2024-03-10T04:15:00.000Z,7.58
2024-03-10T04:30:00.000Z,10.56
2024-03-10T04:45:00.000Z,7.11
2024-03-10T05:00:00.000Z,8.52
2024-03-10T05:15:00.000Z,16.48
2024-03-10T05:30:00.000Z,13.95
2024-03-10T05:45:00.000Z,24.59
2024-03-10T06:00:00.000Z,19.28
2024-03-10T06:15:00.000Z,13.86
2024-03-10T06:30:00.000Z,13.87
2024-03-10T06:45:00.000Z,13.36
2024-03-10T07:00:00.000Z,12.64
2024-03-10T07:15:00.000Z,12.09
2024-03-10T07:30:00.000Z,14.15
2024-03-10T07:45:00.000Z,15.85
2024-03-10T08:00:00.000Z,16.24
2024-03-10T08:15:00.000Z,16.48
2024-03-10T08:30:00.000Z,14.38
2024-03-10T08:45:00.000Z,13.98
2024-03-10T09:00:00.000Z,11.05
2024-03-10T09:15:00.000Z,10.67
2024-03-10T09:30:00.000Z,9.95
2024-03-10T09:45:00.000Z,6.68
2024-03-10T10:00:00.000Z,7.59
2024-03-10T10:15:00.000Z,4.95
2024-03-10T10:30:00.000Z,7.16
2024-03-10T10:45:00.000Z,4.51
2024-03-10T11:00:00.000Z,5.44
2024-03-10T11:15:00.000Z,5.24
2024-03-10T11:30:00.000Z,5.96
2024-03-10T11:45:00.000Z,4.49
2024-03-10T12:00:00.000Z,4.12
2024-03-10T12:15:00.000Z,4.01
2024-03-10T12:30:00.000Z,4.02
2024-03-10T12:45:00.000Z,4.05
2024-03-10T13:00:00.000Z,4.13
2024-03-10T13:15:00.000Z,4.19
2024-03-10T13:30:00.000Z,4.11
2024-03-10T13:45:00.000Z,4.05
2024-03-10T14:00:00.000Z,5.35
2024-03-10T14:15:00.000Z,4.11
2024-03-10T14:30:00.000Z,4.15
2024-03-10T14:45:00.000Z,6.18
2024-03-10T15:00:00.000Z,4.31
2024-03-10T15:15:00.000Z,4.09
2024-03-10T15:30:00.000Z,4.06
2024-03-10T15:45:00.000Z,4.16
2024-03-10T16:00:00.000Z,4.91
2024-03-10T16:15:00.000Z,4.28
2024-03-10T16:30:00.000Z,4.29
2024-03-10T16:45:00.000Z,4.4
2024-03-10T17:00:00.000Z,4.19
2024-03-10T17:15:00.000Z,8.53
2024-03-10T17:30:00.000Z,4.28
2024-03-10T17:45:00.000Z,4.14
2024-03-10T18:00:00.000Z,4.09
2024-03-10T18:15:00.000Z,4.28
2024-03-10T18:30:00.000Z,4.06
2024-03-10T18:45:00.000Z,4.12
2024-03-10T19:00:00.000Z,4.13
2024-03-10T19:15:00.000Z,4.64
2024-03-10T19:30:00.000Z,4.84
2024-03-10T19:45:00.000Z,4.88
2024-03-10T20:00:00.000Z,13.92
2024-03-10T20:15:00.000Z,8.65
2024-03-10T20:30:00.000Z,9.62
2024-03-10T20:45:00.000Z,10.67
2024-03-10T21:00:00.000Z,12.13
2024-03-10T21:15:00.000Z,12.07
2024-03-10T21:30:00.000Z,12.61
2024-03-10T21:45:00.000Z,13.31
2024-03-10T22:00:00.000Z,15.31
2024-03-10T22:15:00.000Z,12.8
2024-03-10T22:30:00.000Z,12.51
2024-03-10T22:45:00.000Z,10.74
2024-03-10T23:00:00.000Z,9.82
2024-03-10T23:15:00.000Z,9.58
2024-03-10T23:30:00.000Z,9.18
2024-03-10T23:45:00.000Z,6.26
